sensor_id;sensor_type;location;lat;lon;timestamp;P1;durP1;ratioP1;P2;durP2;ratioP2
53044;SDS011;38930;52.766;6.884;2022-09-20T00:01:16;6.35;;;1.30;;
53044;SDS011;38930;52.766;6.884;2022-09-20T00:03:47;8.77;;;1.60;;
53044;SDS011;38930;52.766;6.884;2022-09-20T00:06:18;7.47;;;1.58;;
53044;SDS011;38930;52.766;6.884;2022-09-20T00:08:45;6.57;;;1.65;;
53044;SDS011;38930;52.766;6.884;2022-09-20T00:11:16;10.00;;;1.60;;
53044;SDS011;38930;52.766;6.884;2022-09-20T00:13:47;4.82;;;1.40;;
53044;SDS011;38930;52.766;6.884;2022-09-20T00:16:17;8.57;;;1.58;;
53044;SDS011;38930;52.766;6.884;2022-09-20T00:18:52;8.15;;;1.50;;
53044;SDS011;38930;52.766;6.884;2022-09-20T00:21:24;5.10;;;1.80;;
53044;SDS011;38930;52.766;6.884;2022-09-20T00:23:52;6.88;;;1.58;;
53044;SDS011;38930;52.766;6.884;2022-09-20T00:26:18;3.83;;;1.33;;
53044;SDS011;38930;52.766;6.884;2022-09-20T00:28:44;6.32;;;1.55;;
53044;SDS011;38930;52.766;6.884;2022-09-20T00:33:37;4.43;;;1.50;;
53044;SDS011;38930;52.766;6.884;2022-09-20T00:36:21;4.55;;;1.30;;
53044;SDS011;38930;52.766;6.884;2022-09-20T00:38:47;5.78;;;1.60;;
53044;SDS011;38930;52.766;6.884;2022-09-20T00:41:13;3.97;;;1.30;;
53044;SDS011;38930;52.766;6.884;2022-09-20T00:43:41;7.22;;;1.63;;
53044;SDS011;38930;52.766;6.884;2022-09-20T00:46:14;6.45;;;1.40;;
53044;SDS011;38930;52.766;6.884;2022-09-20T00:48:58;8.20;;;2.40;;
53044;SDS011;38930;52.766;6.884;2022-09-20T00:51:31;5.63;;;1.80;;
53044;SDS011;38930;52.766;6.884;2022-09-20T00:54:00;7.45;;;1.98;;
53044;SDS011;38930;52.766;6.884;2022-09-20T00:56:33;9.18;;;1.65;;
53044;SDS011;38930;52.766;6.884;2022-09-20T00:59:10;6.00;;;1.30;;
53044;SDS011;38930;52.766;6.884;2022-09-20T01:01:43;7.13;;;1.58;;
53044;SDS011;38930;52.766;6.884;2022-09-20T01:04:11;4.07;;;1.42;;
53044;SDS011;38930;52.766;6.884;2022-09-20T01:06:40;4.63;;;1.38;;
53044;SDS011;38930;52.766;6.884;2022-09-20T01:09:08;5.53;;;1.42;;
53044;SDS011;38930;52.766;6.884;2022-09-20T01:11:34;9.77;;;1.83;;
53044;SDS011;38930;52.766;6.884;2022-09-20T01:14:01;11.10;;;1.92;;
53044;SDS011;38930;52.766;6.884;2022-09-20T01:16:27;4.20;;;1.33;;
53044;SDS011;38930;52.766;6.884;2022-09-20T01:18:59;5.50;;;1.30;;
53044;SDS011;38930;52.766;6.884;2022-09-20T01:21:28;6.35;;;1.27;;
53044;SDS011;38930;52.766;6.884;2022-09-20T01:23:58;6.22;;;1.15;;
53044;SDS011;38930;52.766;6.884;2022-09-20T01:32:22;5.57;;;1.30;;
53044;SDS011;38930;52.766;6.884;2022-09-20T01:34:53;5.03;;;1.30;;
53044;SDS011;38930;52.766;6.884;2022-09-20T01:37:31;4.68;;;1.25;;
53044;SDS011;38930;52.766;6.884;2022-09-20T01:40:25;6.85;;;1.20;;
53044;SDS011;38930;52.766;6.884;2022-09-20T01:43:07;5.75;;;1.45;;
53044;SDS011;38930;52.766;6.884;2022-09-20T01:45:38;3.70;;;1.42;;
53044;SDS011;38930;52.766;6.884;2022-09-20T01:56:43;6.63;;;1.73;;
53044;SDS011;38930;52.766;6.884;2022-09-20T01:59:30;8.32;;;2.17;;
53044;SDS011;38930;52.766;6.884;2022-09-20T02:10:54;9.30;;;1.55;;
53044;SDS011;38930;52.766;6.884;2022-09-20T02:13:45;3.70;;;1.48;;
53044;SDS011;38930;52.766;6.884;2022-09-20T02:16:29;3.38;;;1.30;;
53044;SDS011;38930;52.766;6.884;2022-09-20T02:30:40;4.97;;;1.25;;
53044;SDS011;38930;52.766;6.884;2022-09-20T02:36:17;7.10;;;1.52;;
53044;SDS011;38930;52.766;6.884;2022-09-20T02:49:45;7.18;;;1.58;;
53044;SDS011;38930;52.766;6.884;2022-09-20T02:52:22;4.93;;;1.00;;
53044;SDS011;38930;52.766;6.884;2022-09-20T02:55:06;5.22;;;1.17;;
53044;SDS011;38930;52.766;6.884;2022-09-20T03:03:37;3.22;;;1.27;;
53044;SDS011;38930;52.766;6.884;2022-09-20T03:05:49;6.93;;;1.35;;
53044;SDS011;38930;52.766;6.884;2022-09-20T03:08:36;3.38;;;1.10;;
53044;SDS011;38930;52.766;6.884;2022-09-20T03:11:23;5.47;;;1.23;;
53044;SDS011;38930;52.766;6.884;2022-09-20T03:25:17;5.60;;;1.23;;
53044;SDS011;38930;52.766;6.884;2022-09-20T03:31:26;7.63;;;1.10;;
53044;SDS011;38930;52.766;6.884;2022-09-20T03:36:52;5.38;;;1.38;;
53044;SDS011;38930;52.766;6.884;2022-09-20T03:42:25;6.38;;;1.35;;
53044;SDS011;38930;52.766;6.884;2022-09-20T04:04:42;5.38;;;1.50;;
53044;SDS011;38930;52.766;6.884;2022-09-20T04:07:26;3.72;;;1.17;;
53044;SDS011;38930;52.766;6.884;2022-09-20T04:10:10;6.88;;;1.58;;
53044;SDS011;38930;52.766;6.884;2022-09-20T04:15:31;4.70;;;1.45;;
53044;SDS011;38930;52.766;6.884;2022-09-20T04:21:13;6.57;;;1.45;;
53044;SDS011;38930;52.766;6.884;2022-09-20T04:24:02;7.25;;;1.40;;
53044;SDS011;38930;52.766;6.884;2022-09-20T04:26:42;2.80;;;1.20;;
53044;SDS011;38930;52.766;6.884;2022-09-20T04:31:59;5.47;;;1.48;;
53044;SDS011;38930;52.766;6.884;2022-09-20T04:34:43;4.55;;;1.27;;
53044;SDS011;38930;52.766;6.884;2022-09-20T04:37:33;6.03;;;1.48;;
53044;SDS011;38930;52.766;6.884;2022-09-20T05:00:04;7.30;;;1.92;;
53044;SDS011;38930;52.766;6.884;2022-09-20T05:07:57;4.18;;;1.75;;
53044;SDS011;38930;52.766;6.884;2022-09-20T05:20:08;3.22;;;1.50;;
53044;SDS011;38930;52.766;6.884;2022-09-20T05:28:06;8.30;;;2.72;;
53044;SDS011;38930;52.766;6.884;2022-09-20T05:30:44;7.10;;;1.90;;
53044;SDS011;38930;52.766;6.884;2022-09-20T05:36:10;4.95;;;1.90;;
53044;SDS011;38930;52.766;6.884;2022-09-20T05:38:45;5.85;;;1.75;;
53044;SDS011;38930;52.766;6.884;2022-09-20T05:44:10;5.53;;;2.17;;
53044;SDS011;38930;52.766;6.884;2022-09-20T05:47:03;8.75;;;2.33;;
53044;SDS011;38930;52.766;6.884;2022-09-20T05:49:58;4.82;;;1.80;;
53044;SDS011;38930;52.766;6.884;2022-09-20T05:52:51;3.55;;;1.85;;
53044;SDS011;38930;52.766;6.884;2022-09-20T05:55:45;4.95;;;1.92;;
53044;SDS011;38930;52.766;6.884;2022-09-20T06:01:21;10.82;;;5.28;;
53044;SDS011;38930;52.766;6.884;2022-09-20T06:06:58;6.07;;;3.13;;
53044;SDS011;38930;52.766;6.884;2022-09-20T06:18:28;4.57;;;1.50;;
53044;SDS011;38930;52.766;6.884;2022-09-20T06:23:46;6.97;;;1.45;;
53044;SDS011;38930;52.766;6.884;2022-09-20T06:26:15;5.75;;;1.85;;
53044;SDS011;38930;52.766;6.884;2022-09-20T06:28:49;4.00;;;1.70;;
53044;SDS011;38930;52.766;6.884;2022-09-20T06:31:18;3.88;;;1.35;;
53044;SDS011;38930;52.766;6.884;2022-09-20T06:33:48;7.10;;;1.63;;
53044;SDS011;38930;52.766;6.884;2022-09-20T06:42:18;3.95;;;1.30;;
53044;SDS011;38930;52.766;6.884;2022-09-20T06:44:44;5.20;;;1.58;;
53044;SDS011;38930;52.766;6.884;2022-09-20T06:47:10;3.58;;;1.20;;
53044;SDS011;38930;52.766;6.884;2022-09-20T06:49:36;2.20;;;1.13;;
53044;SDS011;38930;52.766;6.884;2022-09-20T06:52:13;5.72;;;1.27;;
53044;SDS011;38930;52.766;6.884;2022-09-20T06:54:44;7.03;;;1.25;;
53044;SDS011;38930;52.766;6.884;2022-09-20T06:57:11;5.68;;;1.80;;
53044;SDS011;38930;52.766;6.884;2022-09-20T06:59:40;4.57;;;1.45;;
53044;SDS011;38930;52.766;6.884;2022-09-20T07:02:06;4.97;;;1.30;;
53044;SDS011;38930;52.766;6.884;2022-09-20T07:04:32;4.05;;;1.50;;
53044;SDS011;38930;52.766;6.884;2022-09-20T07:07:02;4.47;;;1.45;;
53044;SDS011;38930;52.766;6.884;2022-09-20T07:09:29;4.10;;;1.40;;
53044;SDS011;38930;52.766;6.884;2022-09-20T07:11:55;3.50;;;1.65;;
53044;SDS011;38930;52.766;6.884;2022-09-20T07:14:23;7.45;;;1.48;;
53044;SDS011;38930;52.766;6.884;2022-09-20T07:16:50;5.05;;;1.42;;
53044;SDS011;38930;52.766;6.884;2022-09-20T07:19:16;3.67;;;1.30;;
53044;SDS011;38930;52.766;6.884;2022-09-20T07:21:42;5.85;;;1.52;;
53044;SDS011;38930;52.766;6.884;2022-09-20T07:24:07;3.35;;;1.63;;
53044;SDS011;38930;52.766;6.884;2022-09-20T07:26:33;3.67;;;1.25;;
53044;SDS011;38930;52.766;6.884;2022-09-20T07:28:59;4.45;;;1.75;;
53044;SDS011;38930;52.766;6.884;2022-09-20T07:31:26;9.18;;;1.70;;
53044;SDS011;38930;52.766;6.884;2022-09-20T07:33:53;8.27;;;1.67;;
53044;SDS011;38930;52.766;6.884;2022-09-20T07:36:19;5.07;;;1.93;;
53044;SDS011;38930;52.766;6.884;2022-09-20T07:38:49;5.22;;;2.28;;
53044;SDS011;38930;52.766;6.884;2022-09-20T07:41:17;7.20;;;1.45;;
53044;SDS011;38930;52.766;6.884;2022-09-20T07:43:43;4.05;;;1.35;;
53044;SDS011;38930;52.766;6.884;2022-09-20T07:46:09;6.97;;;2.05;;
53044;SDS011;38930;52.766;6.884;2022-09-20T07:48:37;10.95;;;1.63;;
53044;SDS011;38930;52.766;6.884;2022-09-20T07:51:08;4.80;;;1.52;;
53044;SDS011;38930;52.766;6.884;2022-09-20T07:53:37;5.47;;;2.00;;
53044;SDS011;38930;52.766;6.884;2022-09-20T07:56:04;4.40;;;1.70;;
53044;SDS011;38930;52.766;6.884;2022-09-20T07:58:38;5.07;;;1.40;;
53044;SDS011;38930;52.766;6.884;2022-09-20T08:01:04;4.90;;;1.50;;
53044;SDS011;38930;52.766;6.884;2022-09-20T08:03:34;5.85;;;1.55;;
53044;SDS011;38930;52.766;6.884;2022-09-20T08:06:04;3.50;;;1.33;;
53044;SDS011;38930;52.766;6.884;2022-09-20T08:08:32;5.80;;;1.70;;
53044;SDS011;38930;52.766;6.884;2022-09-20T08:11:04;3.90;;;1.42;;
53044;SDS011;38930;52.766;6.884;2022-09-20T08:13:31;5.50;;;1.60;;
53044;SDS011;38930;52.766;6.884;2022-09-20T08:16:03;6.45;;;1.50;;
53044;SDS011;38930;52.766;6.884;2022-09-20T08:18:30;6.22;;;1.77;;
53044;SDS011;38930;52.766;6.884;2022-09-20T08:20:56;6.53;;;1.47;;
53044;SDS011;38930;52.766;6.884;2022-09-20T08:23:30;5.22;;;1.60;;
53044;SDS011;38930;52.766;6.884;2022-09-20T08:25:59;4.15;;;1.45;;
53044;SDS011;38930;52.766;6.884;2022-09-20T08:28:25;5.73;;;1.27;;
53044;SDS011;38930;52.766;6.884;2022-09-20T08:30:51;6.13;;;1.20;;
53044;SDS011;38930;52.766;6.884;2022-09-20T08:33:16;5.50;;;1.08;;
53044;SDS011;38930;52.766;6.884;2022-09-20T08:35:42;4.97;;;1.20;;
53044;SDS011;38930;52.766;6.884;2022-09-20T08:38:08;3.95;;;1.17;;
53044;SDS011;38930;52.766;6.884;2022-09-20T08:40:33;3.08;;;1.15;;
53044;SDS011;38930;52.766;6.884;2022-09-20T08:43:00;7.90;;;1.20;;
53044;SDS011;38930;52.766;6.884;2022-09-20T08:45:26;5.50;;;1.20;;
53044;SDS011;38930;52.766;6.884;2022-09-20T08:47:58;4.68;;;1.20;;
53044;SDS011;38930;52.766;6.884;2022-09-20T08:50:26;5.65;;;1.05;;
53044;SDS011;38930;52.766;6.884;2022-09-20T08:52:53;4.18;;;1.20;;
53044;SDS011;38930;52.766;6.884;2022-09-20T08:55:22;2.70;;;1.02;;
53044;SDS011;38930;52.766;6.884;2022-09-20T08:57:52;4.05;;;1.10;;
53044;SDS011;38930;52.766;6.884;2022-09-20T09:00:20;4.13;;;1.25;;
53044;SDS011;38930;52.766;6.884;2022-09-20T09:02:49;4.28;;;1.80;;
53044;SDS011;38930;52.766;6.884;2022-09-20T09:05:27;5.13;;;1.45;;
53044;SDS011;38930;52.766;6.884;2022-09-20T09:07:55;3.65;;;1.30;;
53044;SDS011;38930;52.766;6.884;2022-09-20T09:10:32;5.22;;;1.17;;
53044;SDS011;38930;52.766;6.884;2022-09-20T09:13:00;3.90;;;1.00;;
53044;SDS011;38930;52.766;6.884;2022-09-20T09:15:28;4.07;;;1.25;;
53044;SDS011;38930;52.766;6.884;2022-09-20T09:17:56;5.07;;;1.20;;
53044;SDS011;38930;52.766;6.884;2022-09-20T09:20:22;3.03;;;1.30;;
53044;SDS011;38930;52.766;6.884;2022-09-20T09:23:01;4.72;;;1.20;;
53044;SDS011;38930;52.766;6.884;2022-09-20T09:25:31;3.08;;;1.00;;
53044;SDS011;38930;52.766;6.884;2022-09-20T09:28:03;2.40;;;0.98;;
53044;SDS011;38930;52.766;6.884;2022-09-20T09:30:42;2.65;;;0.85;;
53044;SDS011;38930;52.766;6.884;2022-09-20T09:38:32;4.90;;;1.23;;
53044;SDS011;38930;52.766;6.884;2022-09-20T09:41:01;4.20;;;1.27;;
53044;SDS011;38930;52.766;6.884;2022-09-20T09:46:52;5.75;;;1.00;;
53044;SDS011;38930;52.766;6.884;2022-09-20T09:49:19;2.55;;;0.90;;
53044;SDS011;38930;52.766;6.884;2022-09-20T09:52:00;3.65;;;1.02;;
53044;SDS011;38930;52.766;6.884;2022-09-20T09:54:49;3.70;;;0.85;;
53044;SDS011;38930;52.766;6.884;2022-09-20T10:00:22;2.28;;;0.88;;
53044;SDS011;38930;52.766;6.884;2022-09-20T10:05:50;3.35;;;1.25;;
53044;SDS011;38930;52.766;6.884;2022-09-20T10:14:34;4.03;;;0.90;;
53044;SDS011;38930;52.766;6.884;2022-09-20T10:17:45;3.33;;;1.00;;
53044;SDS011;38930;52.766;6.884;2022-09-20T10:25:46;3.42;;;0.85;;
53044;SDS011;38930;52.766;6.884;2022-09-20T10:28:36;4.38;;;0.90;;
53044;SDS011;38930;52.766;6.884;2022-09-20T10:31:34;4.03;;;1.00;;
53044;SDS011;38930;52.766;6.884;2022-09-20T10:34:19;3.22;;;0.98;;
53044;SDS011;38930;52.766;6.884;2022-09-20T10:36:56;5.05;;;1.23;;
53044;SDS011;38930;52.766;6.884;2022-09-20T10:42:00;3.78;;;0.93;;
53044;SDS011;38930;52.766;6.884;2022-09-20T10:45:11;3.97;;;1.17;;
53044;SDS011;38930;52.766;6.884;2022-09-20T10:53:19;2.83;;;1.17;;
53044;SDS011;38930;52.766;6.884;2022-09-20T11:09:48;5.28;;;1.10;;
53044;SDS011;38930;52.766;6.884;2022-09-20T11:12:26;5.95;;;1.30;;
53044;SDS011;38930;52.766;6.884;2022-09-20T11:15:23;6.43;;;1.00;;
53044;SDS011;38930;52.766;6.884;2022-09-20T11:20:50;3.40;;;1.40;;
53044;SDS011;38930;52.766;6.884;2022-09-20T11:23:23;5.07;;;1.05;;
53044;SDS011;38930;52.766;6.884;2022-09-20T11:25:58;4.43;;;1.15;;
53044;SDS011;38930;52.766;6.884;2022-09-20T11:28:50;4.40;;;1.20;;
53044;SDS011;38930;52.766;6.884;2022-09-20T11:31:25;4.18;;;1.27;;
53044;SDS011;38930;52.766;6.884;2022-09-20T11:33:58;6.13;;;1.02;;
53044;SDS011;38930;52.766;6.884;2022-09-20T11:39:34;4.18;;;1.00;;
53044;SDS011;38930;52.766;6.884;2022-09-20T11:42:06;4.93;;;1.20;;
53044;SDS011;38930;52.766;6.884;2022-09-20T11:44:39;7.63;;;1.40;;
53044;SDS011;38930;52.766;6.884;2022-09-20T11:47:14;4.07;;;1.20;;
53044;SDS011;38930;52.766;6.884;2022-09-20T11:55:12;3.88;;;1.00;;
53044;SDS011;38930;52.766;6.884;2022-09-20T11:57:57;4.18;;;1.00;;
53044;SDS011;38930;52.766;6.884;2022-09-20T12:00:29;4.75;;;1.05;;
53044;SDS011;38930;52.766;6.884;2022-09-20T12:02:59;2.92;;;1.23;;
53044;SDS011;38930;52.766;6.884;2022-09-20T12:05:35;4.20;;;1.20;;
53044;SDS011;38930;52.766;6.884;2022-09-20T12:08:25;3.35;;;0.95;;
53044;SDS011;38930;52.766;6.884;2022-09-20T12:11:04;4.15;;;1.13;;
53044;SDS011;38930;52.766;6.884;2022-09-20T12:13:33;3.67;;;0.90;;
53044;SDS011;38930;52.766;6.884;2022-09-20T12:16:12;4.43;;;1.13;;
53044;SDS011;38930;52.766;6.884;2022-09-20T12:18:47;3.58;;;1.05;;
53044;SDS011;38930;52.766;6.884;2022-09-20T12:21:26;3.80;;;1.15;;
53044;SDS011;38930;52.766;6.884;2022-09-20T12:28:49;5.27;;;1.10;;
53044;SDS011;38930;52.766;6.884;2022-09-20T12:33:56;3.20;;;1.00;;
53044;SDS011;38930;52.766;6.884;2022-09-20T12:36:35;4.18;;;1.02;;
53044;SDS011;38930;52.766;6.884;2022-09-20T13:08:34;5.97;;;1.30;;
53044;SDS011;38930;52.766;6.884;2022-09-20T13:11:18;4.25;;;1.30;;
53044;SDS011;38930;52.766;6.884;2022-09-20T13:19:29;2.85;;;0.77;;
53044;SDS011;38930;52.766;6.884;2022-09-20T13:22:16;4.53;;;1.17;;
53044;SDS011;38930;52.766;6.884;2022-09-20T13:24:49;4.85;;;1.20;;
53044;SDS011;38930;52.766;6.884;2022-09-20T13:27:21;7.18;;;1.67;;
53044;SDS011;38930;52.766;6.884;2022-09-20T13:29:47;3.63;;;1.13;;
53044;SDS011;38930;52.766;6.884;2022-09-20T13:32:17;4.78;;;1.20;;
53044;SDS011;38930;52.766;6.884;2022-09-20T13:34:43;2.63;;;0.98;;
53044;SDS011;38930;52.766;6.884;2022-09-20T13:37:16;3.17;;;1.17;;
53044;SDS011;38930;52.766;6.884;2022-09-20T13:39:52;4.40;;;1.10;;
53044;SDS011;38930;52.766;6.884;2022-09-20T13:42:18;3.28;;;1.13;;
53044;SDS011;38930;52.766;6.884;2022-09-20T13:44:45;4.23;;;1.17;;
53044;SDS011;38930;52.766;6.884;2022-09-20T13:49:48;6.22;;;1.20;;
53044;SDS011;38930;52.766;6.884;2022-09-20T13:52:25;5.53;;;1.20;;
53044;SDS011;38930;52.766;6.884;2022-09-20T13:57:25;4.68;;;1.13;;
53044;SDS011;38930;52.766;6.884;2022-09-20T13:59:52;4.22;;;1.13;;
53044;SDS011;38930;52.766;6.884;2022-09-20T14:04:49;4.60;;;1.02;;
53044;SDS011;38930;52.766;6.884;2022-09-20T14:07:17;3.25;;;1.00;;
53044;SDS011;38930;52.766;6.884;2022-09-20T14:09:43;5.55;;;1.23;;
53044;SDS011;38930;52.766;6.884;2022-09-20T14:12:10;3.17;;;1.10;;
53044;SDS011;38930;52.766;6.884;2022-09-20T14:14:38;4.68;;;1.38;;
53044;SDS011;38930;52.766;6.884;2022-09-20T14:17:06;3.83;;;1.05;;
53044;SDS011;38930;52.766;6.884;2022-09-20T14:19:35;2.75;;;0.93;;
53044;SDS011;38930;52.766;6.884;2022-09-20T14:22:06;4.15;;;0.93;;
53044;SDS011;38930;52.766;6.884;2022-09-20T14:24:37;4.72;;;1.50;;
53044;SDS011;38930;52.766;6.884;2022-09-20T14:27:16;4.07;;;1.10;;
53044;SDS011;38930;52.766;6.884;2022-09-20T14:29:50;4.15;;;1.00;;
53044;SDS011;38930;52.766;6.884;2022-09-20T14:34:46;3.83;;;0.93;;
53044;SDS011;38930;52.766;6.884;2022-09-20T14:44:48;3.65;;;1.58;;
53044;SDS011;38930;52.766;6.884;2022-09-20T14:47:15;3.35;;;1.27;;
53044;SDS011;38930;52.766;6.884;2022-09-20T14:49:49;4.05;;;1.27;;
53044;SDS011;38930;52.766;6.884;2022-09-20T14:52:25;4.27;;;1.10;;
53044;SDS011;38930;52.766;6.884;2022-09-20T14:54:59;4.85;;;1.17;;
53044;SDS011;38930;52.766;6.884;2022-09-20T14:57:46;5.85;;;0.90;;
53044;SDS011;38930;52.766;6.884;2022-09-20T15:00:12;3.60;;;0.95;;
53044;SDS011;38930;52.766;6.884;2022-09-20T15:02:41;3.25;;;0.90;;
53044;SDS011;38930;52.766;6.884;2022-09-20T15:05:15;3.40;;;1.00;;
53044;SDS011;38930;52.766;6.884;2022-09-20T15:07:50;3.65;;;1.10;;
53044;SDS011;38930;52.766;6.884;2022-09-20T15:10:17;6.28;;;1.20;;
53044;SDS011;38930;52.766;6.884;2022-09-20T15:12:43;3.30;;;1.07;;
53044;SDS011;38930;52.766;6.884;2022-09-20T15:15:12;4.28;;;1.00;;
53044;SDS011;38930;52.766;6.884;2022-09-20T15:17:42;4.20;;;1.20;;
53044;SDS011;38930;52.766;6.884;2022-09-20T15:20:18;3.15;;;1.13;;
53044;SDS011;38930;52.766;6.884;2022-09-20T15:22:46;3.70;;;1.00;;
53044;SDS011;38930;52.766;6.884;2022-09-20T15:25:14;4.60;;;0.90;;
53044;SDS011;38930;52.766;6.884;2022-09-20T15:27:42;3.63;;;1.00;;
53044;SDS011;38930;52.766;6.884;2022-09-20T15:30:11;4.45;;;1.20;;
53044;SDS011;38930;52.766;6.884;2022-09-20T15:32:39;4.85;;;0.95;;
53044;SDS011;38930;52.766;6.884;2022-09-20T15:35:05;5.20;;;1.10;;
53044;SDS011;38930;52.766;6.884;2022-09-20T15:37:31;4.82;;;1.45;;
53044;SDS011;38930;52.766;6.884;2022-09-20T15:39:56;5.20;;;1.10;;
53044;SDS011;38930;52.766;6.884;2022-09-20T15:42:22;3.10;;;0.90;;
53044;SDS011;38930;52.766;6.884;2022-09-20T15:44:48;3.07;;;1.00;;
53044;SDS011;38930;52.766;6.884;2022-09-20T15:47:15;4.47;;;0.98;;
53044;SDS011;38930;52.766;6.884;2022-09-20T15:49:41;4.30;;;1.05;;
53044;SDS011;38930;52.766;6.884;2022-09-20T15:52:11;4.63;;;1.17;;
53044;SDS011;38930;52.766;6.884;2022-09-20T15:54:38;4.15;;;1.00;;
53044;SDS011;38930;52.766;6.884;2022-09-20T15:57:04;3.10;;;1.00;;
53044;SDS011;38930;52.766;6.884;2022-09-20T15:59:29;5.53;;;1.53;;
53044;SDS011;38930;52.766;6.884;2022-09-20T16:01:57;4.50;;;1.20;;
53044;SDS011;38930;52.766;6.884;2022-09-20T16:04:23;7.32;;;1.17;;
53044;SDS011;38930;52.766;6.884;2022-09-20T16:06:51;5.68;;;1.08;;
53044;SDS011;38930;52.766;6.884;2022-09-20T16:09:17;5.33;;;1.20;;
53044;SDS011;38930;52.766;6.884;2022-09-20T16:11:43;5.82;;;1.08;;
53044;SDS011;38930;52.766;6.884;2022-09-20T16:14:10;3.95;;;1.05;;
53044;SDS011;38930;52.766;6.884;2022-09-20T16:16:35;4.97;;;1.10;;
53044;SDS011;38930;52.766;6.884;2022-09-20T16:19:01;4.22;;;1.15;;
53044;SDS011;38930;52.766;6.884;2022-09-20T16:21:46;3.78;;;1.20;;
53044;SDS011;38930;52.766;6.884;2022-09-20T16:24:13;3.65;;;1.05;;
53044;SDS011;38930;52.766;6.884;2022-09-20T16:26:40;5.90;;;1.30;;
53044;SDS011;38930;52.766;6.884;2022-09-20T16:29:07;4.30;;;1.13;;
53044;SDS011;38930;52.766;6.884;2022-09-20T16:31:43;4.53;;;1.38;;
53044;SDS011;38930;52.766;6.884;2022-09-20T16:34:16;4.65;;;1.02;;
53044;SDS011;38930;52.766;6.884;2022-09-20T16:36:47;4.63;;;1.00;;
53044;SDS011;38930;52.766;6.884;2022-09-20T16:39:15;4.22;;;0.98;;
53044;SDS011;38930;52.766;6.884;2022-09-20T16:41:42;3.13;;;1.02;;
53044;SDS011;38930;52.766;6.884;2022-09-20T16:44:09;4.18;;;1.10;;
53044;SDS011;38930;52.766;6.884;2022-09-20T16:46:35;3.07;;;1.20;;
53044;SDS011;38930;52.766;6.884;2022-09-20T16:49:02;8.02;;;1.63;;
53044;SDS011;38930;52.766;6.884;2022-09-20T16:51:35;5.65;;;1.20;;
53044;SDS011;38930;52.766;6.884;2022-09-20T16:54:03;5.93;;;1.55;;
53044;SDS011;38930;52.766;6.884;2022-09-20T16:56:31;3.90;;;1.60;;
53044;SDS011;38930;52.766;6.884;2022-09-20T16:58:58;3.28;;;1.30;;
53044;SDS011;38930;52.766;6.884;2022-09-20T17:01:25;6.00;;;1.10;;
53044;SDS011;38930;52.766;6.884;2022-09-20T17:03:50;4.00;;;1.27;;
53044;SDS011;38930;52.766;6.884;2022-09-20T17:06:16;4.40;;;1.07;;
53044;SDS011;38930;52.766;6.884;2022-09-20T17:08:43;6.82;;;1.23;;
53044;SDS011;38930;52.766;6.884;2022-09-20T17:11:15;5.82;;;1.23;;
53044;SDS011;38930;52.766;6.884;2022-09-20T17:13:45;4.25;;;1.08;;
53044;SDS011;38930;52.766;6.884;2022-09-20T17:16:15;6.60;;;1.27;;
53044;SDS011;38930;52.766;6.884;2022-09-20T17:18:58;3.25;;;1.13;;
53044;SDS011;38930;52.766;6.884;2022-09-20T17:21:25;3.30;;;0.93;;
53044;SDS011;38930;52.766;6.884;2022-09-20T17:23:53;4.30;;;1.15;;
53044;SDS011;38930;52.766;6.884;2022-09-20T17:28:51;4.15;;;1.15;;
53044;SDS011;38930;52.766;6.884;2022-09-20T17:31:21;3.38;;;1.20;;
53044;SDS011;38930;52.766;6.884;2022-09-20T17:33:49;7.70;;;1.30;;
53044;SDS011;38930;52.766;6.884;2022-09-20T17:36:16;5.18;;;1.45;;
53044;SDS011;38930;52.766;6.884;2022-09-20T17:38:43;6.40;;;1.40;;
53044;SDS011;38930;52.766;6.884;2022-09-20T17:41:13;3.40;;;1.40;;
53044;SDS011;38930;52.766;6.884;2022-09-20T17:43:41;4.50;;;1.52;;
53044;SDS011;38930;52.766;6.884;2022-09-20T17:48:41;5.75;;;1.63;;
53044;SDS011;38930;52.766;6.884;2022-09-20T17:51:13;4.35;;;1.70;;
53044;SDS011;38930;52.766;6.884;2022-09-20T17:53:40;4.53;;;1.83;;
53044;SDS011;38930;52.766;6.884;2022-09-20T17:56:06;4.78;;;2.60;;
53044;SDS011;38930;52.766;6.884;2022-09-20T17:58:33;6.70;;;2.53;;
53044;SDS011;38930;52.766;6.884;2022-09-20T18:01:03;6.03;;;2.50;;
53044;SDS011;38930;52.766;6.884;2022-09-20T18:03:39;5.15;;;2.80;;
53044;SDS011;38930;52.766;6.884;2022-09-20T18:06:10;5.18;;;2.22;;
53044;SDS011;38930;52.766;6.884;2022-09-20T18:08:46;6.10;;;2.28;;
53044;SDS011;38930;52.766;6.884;2022-09-20T18:11:13;4.32;;;2.13;;
53044;SDS011;38930;52.766;6.884;2022-09-20T18:13:40;6.53;;;2.15;;
53044;SDS011;38930;52.766;6.884;2022-09-20T18:16:07;5.05;;;2.47;;
53044;SDS011;38930;52.766;6.884;2022-09-20T18:18:37;5.30;;;2.65;;
53044;SDS011;38930;52.766;6.884;2022-09-20T18:21:23;6.43;;;3.58;;
53044;SDS011;38930;52.766;6.884;2022-09-20T18:23:51;8.05;;;4.53;;
53044;SDS011;38930;52.766;6.884;2022-09-20T18:26:21;11.50;;;5.53;;
53044;SDS011;38930;52.766;6.884;2022-09-20T18:31:19;5.20;;;3.22;;
53044;SDS011;38930;52.766;6.884;2022-09-20T18:33:45;6.18;;;2.92;;
53044;SDS011;38930;52.766;6.884;2022-09-20T18:36:11;5.43;;;2.25;;
53044;SDS011;38930;52.766;6.884;2022-09-20T18:38:36;6.53;;;2.22;;
53044;SDS011;38930;52.766;6.884;2022-09-20T18:41:02;7.63;;;2.42;;
53044;SDS011;38930;52.766;6.884;2022-09-20T18:43:29;7.00;;;2.70;;
53044;SDS011;38930;52.766;6.884;2022-09-20T18:45:56;5.80;;;3.00;;
53044;SDS011;38930;52.766;6.884;2022-09-20T18:48:23;6.43;;;2.88;;
53044;SDS011;38930;52.766;6.884;2022-09-20T18:51:01;6.07;;;2.58;;
53044;SDS011;38930;52.766;6.884;2022-09-20T18:53:28;9.75;;;2.72;;
53044;SDS011;38930;52.766;6.884;2022-09-20T18:56:03;7.75;;;3.60;;
53044;SDS011;38930;52.766;6.884;2022-09-20T19:01:27;5.63;;;2.60;;
53044;SDS011;38930;52.766;6.884;2022-09-20T19:07:23;7.80;;;4.03;;
53044;SDS011;38930;52.766;6.884;2022-09-20T19:09:35;5.83;;;3.73;;
53044;SDS011;38930;52.766;6.884;2022-09-20T19:15:12;5.55;;;4.53;;
53044;SDS011;38930;52.766;6.884;2022-09-20T19:18:19;7.07;;;4.20;;
53044;SDS011;38930;52.766;6.884;2022-09-20T19:26:06;5.43;;;4.18;;
53044;SDS011;38930;52.766;6.884;2022-09-20T19:28:48;9.05;;;4.47;;
53044;SDS011;38930;52.766;6.884;2022-09-20T19:31:49;8.25;;;4.95;;
53044;SDS011;38930;52.766;6.884;2022-09-20T19:34:13;7.70;;;5.13;;
53044;SDS011;38930;52.766;6.884;2022-09-20T19:39:36;7.97;;;4.95;;
53044;SDS011;38930;52.766;6.884;2022-09-20T19:44:59;6.22;;;4.22;;
53044;SDS011;38930;52.766;6.884;2022-09-20T19:47:55;5.80;;;3.83;;
53044;SDS011;38930;52.766;6.884;2022-09-20T19:50:40;5.95;;;3.58;;
53044;SDS011;38930;52.766;6.884;2022-09-20T19:53:15;5.38;;;3.00;;
53044;SDS011;38930;52.766;6.884;2022-09-20T19:55:45;10.85;;;3.35;;
53044;SDS011;38930;52.766;6.884;2022-09-20T19:58:14;9.82;;;6.90;;
53044;SDS011;38930;52.766;6.884;2022-09-20T20:00:44;10.27;;;5.97;;
53044;SDS011;38930;52.766;6.884;2022-09-20T20:03:10;13.43;;;7.18;;
53044;SDS011;38930;52.766;6.884;2022-09-20T20:05:38;13.30;;;5.60;;
53044;SDS011;38930;52.766;6.884;2022-09-20T20:08:29;9.63;;;3.90;;
53044;SDS011;38930;52.766;6.884;2022-09-20T20:11:16;7.00;;;3.45;;
53044;SDS011;38930;52.766;6.884;2022-09-20T20:16:54;7.15;;;3.63;;
53044;SDS011;38930;52.766;6.884;2022-09-20T20:19:47;10.68;;;5.72;;
53044;SDS011;38930;52.766;6.884;2022-09-20T20:25:20;7.40;;;4.20;;
53044;SDS011;38930;52.766;6.884;2022-09-20T20:27:55;7.68;;;3.78;;
53044;SDS011;38930;52.766;6.884;2022-09-20T20:30:21;10.55;;;3.53;;
53044;SDS011;38930;52.766;6.884;2022-09-20T20:32:46;5.45;;;3.38;;
53044;SDS011;38930;52.766;6.884;2022-09-20T20:35:12;5.93;;;2.97;;
53044;SDS011;38930;52.766;6.884;2022-09-20T20:37:39;5.60;;;2.67;;
53044;SDS011;38930;52.766;6.884;2022-09-20T20:40:04;3.40;;;1.88;;
53044;SDS011;38930;52.766;6.884;2022-09-20T20:42:35;6.85;;;2.92;;
53044;SDS011;38930;52.766;6.884;2022-09-20T20:45:01;8.27;;;2.85;;
53044;SDS011;38930;52.766;6.884;2022-09-20T20:47:26;8.25;;;2.75;;